This is the latest recevied weather packets stored in our database for station/object K2ATL. If no packets are shown the sender has not sent any weather packets the latest 10 day(s).
| Time | Temp. | Humidity | Pressure | Rain* | Wind** | Luminosity | Snow |
|---|---|---|---|---|---|---|---|
| 1787940680 | 27.78° C | 63% | 1103.9 hPa | 0 mm | - | 931 W/m² | - |
| 1787940379 | 28.33° C | 64% | 1103.9 hPa | 0 mm | - | 909 W/m² | - |
| 1787940078 | 27.78° C | 62% | 1104.1 hPa | 0 mm | - | 921 W/m² | - |
| 1787939773 | 27.78° C | 64% | 1104 hPa | 0 mm | - | 909 W/m² | - |
| 1787939472 | 27.78° C | 65% | 1104 hPa | 0 mm | - | 904 W/m² | - |
| 1787939168 | 28.89° C | 61% | 1104.1 hPa | 0 mm | - | 897 W/m² | - |
| 1787938862 | 27.22° C | 65% | 1104 hPa | 0 mm | - | 894 W/m² | - |
| 1787938561 | 26.11° C | 68% | 1104.1 hPa | 0 mm | - | 892 W/m² | - |
| 1787938258 | 26.67° C | 65% | 1104.1 hPa | 0 mm | - | 900 W/m² | - |
| 1787937957 | 26.67° C | 65% | 1104 hPa | 0 mm | - | 894 W/m² | - |
| 1787937653 | 28.89° C | 63% | 1103.9 hPa | 0 mm | - | 887 W/m² | - |
| 1787937349 | 27.78° C | 64% | 1104.1 hPa | 0 mm | - | 901 W/m² | - |
| 1787937045 | 26.67° C | 68% | 1104.1 hPa | 0 mm | - | 898 W/m² | - |
| 1787936744 | 26.67° C | 63% | 1104.1 hPa | 0 mm | - | 898 W/m² | - |
| 1787936439 | 27.78° C | 64% | 1104.2 hPa | 0 mm | - | 896 W/m² | - |
| 1787936138 | 27.22° C | 65% | 1104.3 hPa | 0 mm | - | 891 W/m² | - |
| 1787935834 | 26.67° C | 67% | 1104.3 hPa | 0 mm | - | 876 W/m² | - |
| 1787935530 | 25.56° C | 71% | 1104.3 hPa | 0 mm | - | 897 W/m² | - |
| 1787935226 | 26.11° C | 67% | 1104.6 hPa | 0 mm | - | 891 W/m² | - |
| 1787934921 | 26.67° C | 67% | 1104.3 hPa | 0 mm | - | 858 W/m² | - |
| 1787934616 | 26.67° C | 65% | 1104.5 hPa | 0 mm | - | 848 W/m² | - |
| 1787934315 | 26.67° C | 70% | 1104.5 hPa | 0 mm | - | 836 W/m² | - |
| 1787934015 | 26.11° C | 68% | 1104.5 hPa | 0 mm | - | 825 W/m² | - |
| 1787933714 | 26.11° C | 70% | 1104.2 hPa | 0 mm | - | 813 W/m² | - |
| 1787933409 | 25.56° C | 73% | 1104.3 hPa | 0 mm | - | 803 W/m² | - |
* Rain latest hour (hover to see other rain measurements)
** Current wind speed in m/s (hover to see current wind gust speed)